aviador You're here:

KLAF Decoded Metar

LAFAYETTE in IN, USA
Report Time2018-06-24 21:54:00
UTC Time2018-06-24 22:42:24
Flight Rules vfr VFR
WindVRB at 03 kt
Visibility9999 m
Phenomena:N/A
Clouds:N/A
Expected CloudBase > 4,800 ft AGL from Temp-Dew spread
CeilingNone
Temp28°C (ISA +14)
Dew Point16°C (48% RH)
Heat Index28.3°C
QNH1015 hPa
Density Alt2,405 ft
Elevation597 ft
Report Wrong Elevation
Raw Report
KLAF 242154Z VRB03KT 10SM CLR 28/16 A2997 RMK AO2 SLP143
T02780161=

Extra information for KLAF:More info

Metar Taf Metar & Taf Last 4 Metars F.Rules Stats Wind Profile Meteogram Temp Stats Airport Information Weather charts Add Link Nearby VenuesMetar ALERT Operation Metar Decoded Social comments

AIRNAV info for KLAF